Time;durP1;ratioP1;P1;durP2;ratioP2;P2;SDS_P1;SDS_P2;PMS_P1;PMS_P2;Temp;Humidity;BMP_temperature;BMP_pressure;BME280_temperature;BME280_humidity;BME280_pressure;Samples;Min_cycle;Max_cycle;Signal;HPM_P1;HPM_P2
2022/07/10 00:00:28;;;;;;;2.63;1.05;;;;;;;12.38;100.00;102201.09;5055423;28;20024;-51
2022/07/10 00:02:54;;;;;;;0.52;0.22;;;;;;;12.37;100.00;102199.44;5058033;28;20535;-48
2022/07/10 00:05:22;;;;;;;2.15;0.40;;;;;;;12.25;100.00;102204.19;5059869;28;20032;-55
2022/07/10 00:07:48;;;;;;;1.95;0.75;;;;;;;12.19;100.00;102203.00;5057731;28;20024;-53
2022/07/10 00:10:14;;;;;;;1.20;0.28;;;;;;;12.12;100.00;102198.50;5053418;28;20028;-48
2022/07/10 00:12:40;;;;;;;0.95;0.45;;;;;;;12.03;100.00;102194.97;5057220;28;20033;-54
2022/07/10 00:15:06;;;;;;;2.72;0.30;;;;;;;11.99;100.00;102194.44;5057149;28;20118;-52
2022/07/10 00:17:32;;;;;;;0.10;0.05;;;;;;;11.94;100.00;102194.09;5057618;28;20032;-50
2022/07/10 00:19:58;;;;;;;1.80;0.30;;;;;;;11.90;100.00;102190.09;5052389;28;20430;-51
2022/07/10 00:22:24;;;;;;;1.60;0.28;;;;;;;11.87;100.00;102193.03;5056053;28;20481;-50
2022/07/10 00:24:52;;;;;;;0.45;0.10;;;;;;;11.80;100.00;102194.66;5067472;28;20039;-53
2022/07/10 00:27:18;;;;;;;0.63;0.20;;;;;;;11.73;100.00;102190.94;5060414;28;20059;-55
2022/07/10 00:29:44;;;;;;;0.10;0.10;;;;;;;11.66;100.00;102195.22;5058667;28;20092;-53
2022/07/10 00:32:09;;;;;;;2.25;0.32;;;;;;;11.63;100.00;102198.19;5058771;28;20473;-52
2022/07/10 00:34:35;;;;;;;0.63;0.03;;;;;;;11.62;100.00;102200.03;5063422;28;20040;-50
2022/07/10 00:37:02;;;;;;;4.68;0.70;;;;;;;11.58;100.00;102196.00;5061801;28;20060;-53
2022/07/10 00:39:27;;;;;;;0.30;0.10;;;;;;;11.53;100.00;102207.06;5064428;28;20119;-53
2022/07/10 00:41:53;;;;;;;1.38;0.10;;;;;;;11.47;100.00;102201.56;5062708;28;20530;-49
2022/07/10 00:44:18;;;;;;;1.70;0.20;;;;;;;11.41;100.00;102200.38;5064899;28;20031;-53
2022/07/10 00:46:43;;;;;;;2.05;0.25;;;;;;;11.39;100.00;102199.69;5063379;28;20040;-52
2022/07/10 00:49:09;;;;;;;1.17;0.30;;;;;;;11.39;100.00;102204.16;5054711;28;20029;-48
2022/07/10 00:51:34;;;;;;;3.90;0.60;;;;;;;11.45;100.00;102204.38;5053718;28;20122;-54
2022/07/10 00:54:00;;;;;;;0.45;0.45;;;;;;;11.52;100.00;102197.44;5054457;28;20489;-49
2022/07/10 00:56:27;;;;;;;1.58;0.85;;;;;;;11.50;100.00;102204.72;5058061;28;20040;-55
2022/07/10 00:58:53;;;;;;;2.15;0.73;;;;;;;11.46;100.00;102203.41;5056557;28;20031;-49
2022/07/10 01:01:19;;;;;;;0.60;0.40;;;;;;;11.42;100.00;102204.69;5059458;28;20489;-52
2022/07/10 01:03:46;;;;;;;2.15;0.10;;;;;;;11.38;100.00;102207.78;5051502;28;20043;-53
2022/07/10 01:06:12;;;;;;;0.30;0.25;;;;;;;11.35;100.00;102203.63;5062871;28;20056;-50
2022/07/10 01:08:41;;;;;;;1.17;0.10;;;;;;;11.32;100.00;102190.66;5059205;28;20040;-52
2022/07/10 01:11:07;;;;;;;0.65;0.10;;;;;;;11.31;100.00;102192.50;5049717;28;20021;-54
2022/07/10 01:13:32;;;;;;;0.55;0.10;;;;;;;11.26;100.00;102193.94;5051839;28;20016;-50
2022/07/10 01:15:58;;;;;;;0.30;0.17;;;;;;;11.19;100.00;102196.38;5062146;28;20116;-52
2022/07/10 01:18:26;;;;;;;0.25;0.03;;;;;;;11.12;100.00;102185.50;5056262;28;20043;-51
2022/07/10 01:20:54;;;;;;;0.28;0.10;;;;;;;11.06;100.00;102183.47;5050959;28;20035;-48
2022/07/10 01:23:20;;;;;;;1.55;0.40;;;;;;;11.00;100.00;102185.94;5050582;28;20052;-48
2022/07/10 01:25:45;;;;;;;1.42;0.32;;;;;;;10.93;100.00;102188.34;5061020;28;20397;-48
2022/07/10 01:28:10;;;;;;;0.57;0.20;;;;;;;10.89;100.00;102182.50;5058086;28;20120;-52
2022/07/10 01:30:36;;;;;;;0.93;0.25;;;;;;;10.85;100.00;102185.59;5059480;28;20052;-51
2022/07/10 01:33:02;;;;;;;0.17;0.17;;;;;;;10.83;100.00;102184.91;5063086;28;20059;-52
2022/07/10 01:35:27;;;;;;;0.47;0.15;;;;;;;10.84;100.00;102195.41;5061022;28;20425;-54
2022/07/10 01:37:53;;;;;;;0.55;0.10;;;;;;;10.81;100.00;102182.41;5057088;28;20047;-55
2022/07/10 01:40:18;;;;;;;0.25;0.25;;;;;;;10.76;100.00;102174.06;5056427;28;20040;-51
2022/07/10 01:42:45;;;;;;;0.45;0.20;;;;;;;10.70;100.00;102180.81;5062607;28;20036;-52
2022/07/10 01:45:10;;;;;;;1.27;0.17;;;;;;;10.67;100.00;102177.63;5055004;28;20025;-51
2022/07/10 01:47:36;;;;;;;0.60;0.43;;;;;;;10.68;100.00;102174.00;5059852;28;20040;-50
2022/07/10 01:50:03;;;;;;;2.58;0.40;;;;;;;10.66;100.00;102179.47;5050360;28;20028;-51
2022/07/10 01:52:28;;;;;;;1.13;0.15;;;;;;;10.59;100.00;102182.88;5061699;28;20032;-54
2022/07/10 01:54:53;;;;;;;0.30;0.22;;;;;;;10.52;100.00;102177.31;5048495;28;20485;-52
2022/07/10 01:57:19;;;;;;;0.55;0.30;;;;;;;10.48;100.00;102189.22;5058544;28;20487;-53
2022/07/10 01:59:44;;;;;;;0.65;0.10;;;;;;;10.43;100.00;102183.53;5064458;28;20076;-51
2022/07/10 02:02:10;;;;;;;1.20;0.32;;;;;;;10.40;100.00;102182.00;5054106;28;20036;-50
2022/07/10 02:04:41;;;;;;;0.20;0.15;;;;;;;10.40;100.00;102178.50;5054557;28;20028;-47
2022/07/10 02:07:11;;;;;;;0.30;0.30;;;;;;;10.35;100.00;102173.66;5059470;28;20043;-53
2022/07/10 02:09:38;;;;;;;0.75;0.45;;;;;;;10.31;100.00;102171.44;5058247;28;20036;-51
2022/07/10 02:12:04;;;;;;;0.43;0.43;;;;;;;10.22;100.00;102184.56;5060687;28;20394;-54
2022/07/10 02:14:30;;;;;;;0.98;0.10;;;;;;;10.21;100.00;102182.06;5051349;28;20064;-52
2022/07/10 02:16:55;;;;;;;0.30;0.13;;;;;;;10.21;100.00;102179.41;5068841;28;20111;-48
2022/07/10 02:19:21;;;;;;;0.57;0.15;;;;;;;10.19;100.00;102176.88;5050176;28;20385;-49
2022/07/10 02:21:47;;;;;;;0.50;0.40;;;;;;;10.10;100.00;102185.75;5062127;28;20024;-49
2022/07/10 02:24:12;;;;;;;1.00;0.25;;;;;;;9.99;100.00;102184.13;5056577;28;20035;-50
2022/07/10 02:26:37;;;;;;;7.32;0.77;;;;;;;9.91;100.00;102177.84;5060120;28;20056;-50
2022/07/10 02:29:03;;;;;;;0.32;0.22;;;;;;;9.83;100.00;102175.91;5055511;28;20056;-50
2022/07/10 02:31:28;;;;;;;1.83;0.20;;;;;;;9.79;100.00;102178.03;5060765;28;20033;-54
2022/07/10 02:33:54;;;;;;;0.47;0.30;;;;;;;9.78;100.00;102176.38;5055129;28;20021;-50
2022/07/10 02:36:19;;;;;;;1.13;0.20;;;;;;;9.77;100.00;102174.69;5056758;28;20063;-50
2022/07/10 02:38:45;;;;;;;0.10;0.10;;;;;;;9.78;100.00;102175.53;5054042;28;20132;-51
2022/07/10 02:41:10;;;;;;;0.32;0.20;;;;;;;9.77;100.00;102173.88;5049986;28;20112;-52
2022/07/10 02:43:35;;;;;;;0.80;0.28;;;;;;;9.73;100.00;102173.34;5054734;28;20021;-53
2022/07/10 02:46:01;;;;;;;0.10;0.10;;;;;;;9.73;100.00;102167.16;5061640;28;20020;-54
2022/07/10 02:48:27;;;;;;;2.17;0.47;;;;;;;9.70;100.00;102165.66;5050325;28;20547;-50
2022/07/10 02:50:52;;;;;;;1.90;0.63;;;;;;;9.65;100.00;102159.13;5054390;28;20329;-51
2022/07/10 02:53:18;;;;;;;0.63;0.45;;;;;;;9.62;100.00;102165.53;5062335;28;20085;-51
2022/07/10 02:55:43;;;;;;;1.15;0.20;;;;;;;9.63;100.00;102166.38;5061875;28;20146;-51
2022/07/10 02:58:09;;;;;;;3.97;0.20;;;;;;;9.55;100.00;102160.00;5064971;28;20024;-50
2022/07/10 03:00:35;;;;;;;0.75;0.50;;;;;;;9.41;100.00;102163.06;5050284;28;20096;-53
2022/07/10 03:03:01;;;;;;;0.20;0.17;;;;;;;9.34;100.00;102168.09;5049750;28;20028;-48
2022/07/10 03:05:26;;;;;;;0.98;0.22;;;;;;;9.34;100.00;102164.63;5058462;28;20036;-47
2022/07/10 03:07:51;;;;;;;1.45;0.43;;;;;;;9.33;100.00;102163.78;5053249;28;20489;-52
2022/07/10 03:10:17;;;;;;;3.25;0.32;;;;;;;9.29;100.00;102165.06;5057867;28;20103;-51
2022/07/10 03:12:42;;;;;;;0.75;0.10;;;;;;;9.21;100.00;102161.44;5059409;28;20037;-51
2022/07/10 03:15:08;;;;;;;0.45;0.45;;;;;;;9.16;100.00;102164.50;5051484;28;20028;-51
2022/07/10 03:17:34;;;;;;;3.85;0.50;;;;;;;9.11;100.00;102164.94;5066693;28;20031;-52
2022/07/10 03:19:59;;;;;;;0.45;0.38;;;;;;;9.05;100.00;102164.66;5063040;28;20041;-51
2022/07/10 03:22:25;;;;;;;1.45;0.15;;;;;;;9.04;100.00;102169.13;5065149;28;20024;-54
2022/07/10 03:24:50;;;;;;;0.32;0.25;;;;;;;8.99;100.00;102157.28;5063894;28;20083;-53
2022/07/10 03:27:16;;;;;;;2.15;0.20;;;;;;;8.94;100.00;102165.63;5057595;28;20036;-51
2022/07/10 03:29:41;;;;;;;0.55;0.30;;;;;;;8.89;100.00;102160.75;5060108;28;20029;-51
2022/07/10 03:32:07;;;;;;;2.10;0.30;;;;;;;8.87;100.00;102154.75;5065431;28;20032;-51
2022/07/10 03:34:33;;;;;;;2.05;0.17;;;;;;;8.91;100.00;102160.63;5060770;28;20040;-52
2022/07/10 03:37:00;;;;;;;0.20;0.10;;;;;;;8.87;100.00;102153.94;5057022;28;20033;-50
2022/07/10 03:39:26;;;;;;;0.30;0.20;;;;;;;8.86;100.00;102146.97;5051685;28;20427;-54
2022/07/10 03:41:51;;;;;;;0.57;0.10;;;;;;;8.87;100.00;102154.75;5059678;28;20053;-48
2022/07/10 03:44:17;;;;;;;1.85;0.25;;;;;;;8.85;100.00;102148.75;5061959;28;20120;-51
2022/07/10 03:46:42;;;;;;;0.30;0.30;;;;;;;8.83;100.00;102145.44;5068644;28;20041;-51
2022/07/10 03:49:07;;;;;;;0.20;0.20;;;;;;;8.78;100.00;102142.38;5050774;28;20029;-51
2022/07/10 03:51:33;;;;;;;1.45;1.00;;;;;;;8.73;100.00;102142.78;5062384;28;20037;-53
2022/07/10 03:53:58;;;;;;;0.28;0.28;;;;;;;8.71;100.00;102149.19;5063760;28;20024;-53
2022/07/10 03:59:07;;;;;;;1.95;0.60;;;;;;;8.62;100.00;102160.56;5060277;28;20035;-53
2022/07/10 04:01:33;;;;;;;1.05;0.25;;;;;;;8.60;100.00;102152.81;5060462;28;20465;-51
2022/07/10 04:03:58;;;;;;;0.57;0.13;;;;;;;8.58;100.00;102148.63;5063817;28;20074;-54
2022/07/10 04:06:24;;;;;;;2.67;0.50;;;;;;;8.55;100.00;102146.25;5059926;28;20389;-48
2022/07/10 04:08:49;;;;;;;1.10;0.43;;;;;;;8.46;100.00;102154.00;5058930;28;20109;-50
2022/07/10 04:11:14;;;;;;;1.35;0.52;;;;;;;8.44;100.00;102152.47;5058468;28;20029;-53
2022/07/10 04:13:40;;;;;;;1.67;0.55;;;;;;;8.40;100.00;102149.28;5050406;28;20043;-53
2022/07/10 04:16:05;;;;;;;0.20;0.20;;;;;;;8.39;100.00;102146.72;5057588;28;20033;-49
2022/07/10 04:18:31;;;;;;;1.45;1.00;;;;;;;8.40;100.00;102145.81;5059824;28;20301;-48
2022/07/10 04:20:56;;;;;;;0.10;0.10;;;;;;;8.41;100.00;102148.28;5062091;28;20021;-54
2022/07/10 04:23:21;;;;;;;1.50;0.20;;;;;;;8.45;100.00;102149.72;5060226;28;20122;-52
2022/07/10 04:25:47;;;;;;;1.42;0.40;;;;;;;8.44;100.00;102149.84;5062238;28;20445;-51
2022/07/10 04:28:12;;;;;;;1.00;0.30;;;;;;;8.42;100.00;102147.34;5062072;28;20071;-52
2022/07/10 04:30:37;;;;;;;0.55;0.52;;;;;;;8.44;100.00;102155.13;5065455;28;20418;-52
2022/07/10 04:33:03;;;;;;;1.25;0.38;;;;;;;8.46;100.00;102150.53;5061181;28;20052;-54
2022/07/10 04:35:28;;;;;;;0.45;0.20;;;;;;;8.44;100.00;102153.34;5054184;28;20590;-50
2022/07/10 04:37:53;;;;;;;0.10;0.10;;;;;;;8.48;100.00;102156.53;5059779;28;20039;-51
2022/07/10 04:40:19;;;;;;;0.85;0.30;;;;;;;8.50;100.00;102157.25;5061658;28;20067;-50
2022/07/10 04:42:44;;;;;;;0.40;0.13;;;;;;;8.54;100.00;102157.78;5064421;28;20105;-55
2022/07/10 04:45:10;;;;;;;0.52;0.52;;;;;;;8.57;100.00;102162.78;5055692;28;20033;-51
2022/07/10 04:47:35;;;;;;;0.45;0.32;;;;;;;8.59;100.00;102164.34;5055649;28;20041;-50
2022/07/10 04:50:01;;;;;;;1.50;0.63;;;;;;;8.60;100.00;102155.44;5061966;28;20052;-53
2022/07/10 04:52:26;;;;;;;0.50;0.40;;;;;;;8.62;100.00;102163.22;5066257;28;20017;-52
2022/07/10 04:54:51;;;;;;;0.82;0.40;;;;;;;8.66;100.00;102162.81;5061462;28;20039;-54
2022/07/10 04:57:17;;;;;;;0.80;0.80;;;;;;;8.74;100.00;102159.50;5056662;28;20122;-52
2022/07/10 04:59:42;;;;;;;1.02;0.30;;;;;;;8.76;100.00;102157.53;5050378;28;20047;-53
2022/07/10 05:02:08;;;;;;;1.65;0.10;;;;;;;8.78;100.00;102162.69;5056747;28;20108;-49
2022/07/10 05:04:33;;;;;;;0.40;0.20;;;;;;;8.79;100.00;102157.25;5058330;28;20029;-54
2022/07/10 05:06:59;;;;;;;0.98;0.20;;;;;;;8.82;100.00;102156.97;5048532;28;20415;-53
2022/07/10 05:09:24;;;;;;;1.52;0.28;;;;;;;8.85;100.00;102156.69;5060858;28;20409;-55
2022/07/10 05:11:49;;;;;;;0.43;0.28;;;;;;;8.89;100.00;102160.75;5061053;28;20046;-50
2022/07/10 05:14:16;;;;;;;0.15;0.15;;;;;;;8.96;100.00;102158.41;5063904;28;20339;-54
2022/07/10 05:16:41;;;;;;;0.10;0.10;;;;;;;9.03;100.00;102159.50;5054426;28;20025;-50
2022/07/10 05:19:07;;;;;;;2.28;0.30;;;;;;;9.06;100.00;102161.03;5061115;28;20362;-52
2022/07/10 05:21:32;;;;;;;0.30;0.10;;;;;;;9.08;100.00;102161.72;5059839;28;20108;-48
2022/07/10 05:23:58;;;;;;;0.90;0.32;;;;;;;9.10;100.00;102160.59;5059435;28;20549;-48
2022/07/10 05:26:24;;;;;;;0.65;0.43;;;;;;;9.15;100.00;102158.38;5054507;28;20032;-53
2022/07/10 05:28:49;;;;;;;1.02;0.20;;;;;;;9.28;100.00;102158.06;5065210;28;20024;-54
2022/07/10 05:31:14;;;;;;;0.80;0.40;;;;;;;9.41;100.00;102151.66;5052714;28;20108;-52
2022/07/10 05:33:40;;;;;;;0.17;0.15;;;;;;;9.52;100.00;102154.13;5041117;28;20064;-50
2022/07/10 05:36:07;;;;;;;0.73;0.25;;;;;;;9.71;100.00;102150.63;5057308;28;20473;-48
2022/07/10 05:38:32;;;;;;;1.05;0.20;;;;;;;9.91;100.00;102154.00;5062089;28;20081;-54
2022/07/10 05:40:58;;;;;;;0.10;0.10;;;;;;;10.03;100.00;102158.16;5059473;28;20422;-50
2022/07/10 05:43:23;;;;;;;1.08;0.20;;;;;;;10.03;100.00;102150.19;5048163;28;20043;-51
2022/07/10 05:45:48;;;;;;;1.63;0.47;;;;;;;10.09;100.00;102152.25;5054943;28;20025;-48
2022/07/10 05:48:14;;;;;;;0.25;0.25;;;;;;;10.18;100.00;102150.53;5055280;28;20044;-53
2022/07/10 05:50:39;;;;;;;0.88;0.30;;;;;;;10.26;100.00;102158.59;5056645;28;20028;-51
2022/07/10 05:53:05;;;;;;;1.33;0.20;;;;;;;10.33;100.00;102151.75;5055592;28;20111;-52
2022/07/10 05:55:30;;;;;;;0.65;0.10;;;;;;;10.41;100.00;102153.66;5055298;28;20028;-50
2022/07/10 05:57:55;;;;;;;0.70;0.30;;;;;;;10.49;100.00;102159.03;5054891;28;20043;-52
2022/07/10 06:00:21;;;;;;;0.22;0.10;;;;;;;10.55;100.00;102155.78;5052118;28;20036;-51
2022/07/10 06:02:46;;;;;;;2.97;0.30;;;;;;;10.66;100.00;102160.91;5059405;28;20025;-53
2022/07/10 06:05:12;;;;;;;0.70;0.63;;;;;;;10.86;100.00;102155.41;5053923;28;20559;-51
2022/07/10 06:07:37;;;;;;;0.10;0.00;;;;;;;11.06;100.00;102151.63;5058977;28;20028;-49
2022/07/10 06:10:04;;;;;;;0.52;0.45;;;;;;;11.26;100.00;102157.59;5057909;28;20040;-53
2022/07/10 06:12:29;;;;;;;10.30;1.73;;;;;;;11.46;100.00;102160.91;5052324;28;20477;-54
2022/07/10 06:14:55;;;;;;;1.48;0.47;;;;;;;11.63;100.00;102161.81;5055145;28;20025;-52
2022/07/10 06:17:20;;;;;;;1.05;0.20;;;;;;;11.82;100.00;102157.28;5057811;28;20096;-54
2022/07/10 06:19:46;;;;;;;1.88;0.95;;;;;;;12.04;100.00;102155.91;5056404;28;20041;-52
2022/07/10 06:24:55;;;;;;;1.45;0.40;;;;;;;12.27;100.00;102138.38;5056258;28;20082;-55
2022/07/10 06:27:20;;;;;;;0.50;0.50;;;;;;;12.49;100.00;102146.75;5054260;28;20059;-52
2022/07/10 06:29:45;;;;;;;0.82;0.50;;;;;;;12.53;100.00;102148.09;5058592;28;20068;-53
2022/07/10 06:32:11;;;;;;;1.77;0.90;;;;;;;12.59;100.00;102142.13;5059160;28;20067;-52
2022/07/10 06:34:36;;;;;;;4.95;3.38;;;;;;;12.73;100.00;102146.81;5038905;28;20029;-53
2022/07/10 06:37:02;;;;;;;4.70;2.50;;;;;;;12.82;100.00;102129.00;5053441;28;20025;-51
2022/07/10 06:39:35;;;;;;;5.40;2.83;;;;;;;12.90;100.00;102133.50;5058503;28;20213;-50
2022/07/10 06:42:03;;;;;;;4.25;2.78;;;;;;;12.88;100.00;102129.19;5056677;28;20037;-52
2022/07/10 06:44:28;;;;;;;6.32;2.97;;;;;;;12.92;100.00;102129.66;5055609;28;20020;-54
2022/07/10 06:49:40;;;;;;;9.63;3.55;;;;;;;13.23;100.00;102139.66;5053203;28;20039;-51
2022/07/10 06:52:05;;;;;;;6.28;3.72;;;;;;;13.32;100.00;102130.69;5063846;28;20033;-55
2022/07/10 06:54:32;;;;;;;4.10;2.83;;;;;;;13.47;100.00;102125.47;5059071;28;20112;-49
2022/07/10 06:56:57;;;;;;;4.18;2.53;;;;;;;13.63;100.00;102125.47;5061531;28;20028;-52
2022/07/10 06:59:22;;;;;;;4.63;3.55;;;;;;;13.80;100.00;102122.72;5058784;28;20100;-54
2022/07/10 07:01:48;;;;;;;6.70;4.00;;;;;;;13.89;100.00;102127.88;5051993;28;20425;-55
2022/07/10 07:04:13;;;;;;;5.85;3.25;;;;;;;14.10;100.00;102126.44;5054387;28;20024;-55
2022/07/10 07:06:39;;;;;;;5.95;3.53;;;;;;;14.33;100.00;102129.16;5065600;28;20052;-52
2022/07/10 07:09:04;;;;;;;4.32;3.58;;;;;;;14.46;100.00;102118.72;5055677;28;20062;-50
2022/07/10 07:11:29;;;;;;;6.60;3.72;;;;;;;14.64;100.00;102113.16;5055641;28;20087;-51
2022/07/10 07:13:55;;;;;;;5.55;4.35;;;;;;;14.92;100.00;102107.22;5053852;28;20033;-51
2022/07/10 07:16:27;;;;;;;8.77;3.65;;;;;;;15.19;100.00;102103.97;5061775;28;20075;-51
2022/07/10 07:18:54;;;;;;;7.05;3.97;;;;;;;15.43;100.00;102110.09;5054030;28;20035;-52
2022/07/10 07:24:05;;;;;;;3.47;3.15;;;;;;;15.62;100.00;102098.84;5052501;28;20116;-45
2022/07/10 07:26:30;;;;;;;5.50;2.90;;;;;;;15.70;100.00;102100.63;5061769;28;20553;-49
2022/07/10 07:28:56;;;;;;;2.78;2.38;;;;;;;15.81;100.00;102092.13;5050458;28;20033;-45
2022/07/10 07:31:21;;;;;;;5.18;2.72;;;;;;;15.88;100.00;102082.34;5054657;28;20039;-46
2022/07/10 07:33:47;;;;;;;4.22;2.58;;;;;;;16.05;100.00;102085.63;5053909;28;20021;-51
2022/07/10 07:36:13;;;;;;;4.72;2.45;;;;;;;16.27;100.00;102086.50;5059380;28;20480;-54
2022/07/10 07:38:38;;;;;;;3.85;1.80;;;;;;;16.47;100.00;102080.50;5053680;28;20114;-51
2022/07/10 07:41:04;;;;;;;2.05;1.90;;;;;;;16.64;100.00;102062.34;5059695;28;20139;-49
2022/07/10 07:43:29;;;;;;;2.10;1.73;;;;;;;16.78;100.00;102062.31;5057804;28;20116;-47
2022/07/10 07:45:55;;;;;;;4.35;1.65;;;;;;;17.05;100.00;102070.53;5060056;28;20086;-51
2022/07/10 07:48:20;;;;;;;3.08;1.88;;;;;;;17.15;100.00;102054.13;5055548;28;20326;-52
2022/07/10 07:50:45;;;;;;;3.53;1.90;;;;;;;17.19;100.00;102058.88;5052783;28;20048;-52
2022/07/10 07:53:11;;;;;;;1.67;1.35;;;;;;;17.30;100.00;102064.72;5050766;28;20503;-54
2022/07/10 07:55:37;;;;;;;4.22;1.88;;;;;;;17.44;100.00;102059.22;5059198;28;20086;-55
2022/07/10 07:58:03;;;;;;;2.50;1.65;;;;;;;17.60;100.00;102059.91;5061442;28;20482;-54
2022/07/10 08:00:29;;;;;;;3.08;1.77;;;;;;;17.76;100.00;102046.19;5058033;28;20473;-54
2022/07/10 08:02:57;;;;;;;2.53;1.73;;;;;;;17.85;100.00;102046.84;5059353;28;20032;-56
2022/07/10 08:05:25;;;;;;;3.47;2.00;;;;;;;18.19;100.00;102042.41;5062328;28;20143;-49
2022/07/10 08:07:53;;;;;;;2.85;2.42;;;;;;;18.39;100.00;102032.53;5065890;28;20036;-50
2022/07/10 08:10:21;;;;;;;2.75;2.22;;;;;;;18.42;100.00;102039.34;5059059;28;20120;-47
2022/07/10 08:12:47;;;;;;;3.20;2.45;;;;;;;18.58;100.00;102032.72;5060293;28;20029;-50
2022/07/10 08:15:15;;;;;;;1.35;1.20;;;;;;;18.83;100.00;102033.78;5042140;28;20036;-52
2022/07/10 08:17:40;;;;;;;3.92;2.05;;;;;;;18.93;100.00;102023.44;5055705;28;20178;-54
2022/07/10 08:20:11;;;;;;;3.42;2.58;;;;;;;18.82;100.00;102021.41;5061589;28;20108;-56
2022/07/10 08:22:37;;;;;;;3.30;1.63;;;;;;;18.84;100.00;102015.81;5055889;28;20097;-53
2022/07/10 08:25:03;;;;;;;1.52;1.42;;;;;;;18.82;100.00;102021.41;5053154;28;20484;-46
2022/07/10 08:27:28;;;;;;;1.58;0.93;;;;;;;19.04;100.00;102023.84;5057055;28;20334;-51
2022/07/10 08:29:54;;;;;;;1.35;1.23;;;;;;;19.32;100.00;102027.06;5060034;28;20036;-50
2022/07/10 08:32:20;;;;;;;1.80;0.77;;;;;;;19.47;100.00;102012.56;5054309;28;20036;-55
2022/07/10 08:34:45;;;;;;;1.60;0.98;;;;;;;19.63;100.00;102014.75;5046245;28;20040;-49
2022/07/10 08:37:11;;;;;;;2.53;1.08;;;;;;;19.90;100.00;102007.38;5058372;28;20044;-53
2022/07/10 08:39:37;;;;;;;6.05;0.85;;;;;;;19.89;100.00;102007.63;5048997;28;20036;-55
2022/07/10 08:42:05;;;;;;;1.08;0.80;;;;;;;19.95;100.00;102004.06;5063679;28;20155;-56
2022/07/10 08:44:31;;;;;;;4.68;1.10;;;;;;;19.97;100.00;102002.78;5060611;28;20039;-59
2022/07/10 08:46:57;;;;;;;3.85;0.82;;;;;;;20.03;100.00;102001.94;5057670;28;20025;-54
2022/07/10 08:49:31;;;;;;;1.80;1.33;;;;;;;20.35;100.00;102009.19;5054572;28;20818;-59
2022/07/10 08:52:23;;;;;;;1.85;1.33;;;;;;;20.64;100.00;102005.03;5051810;28;20103;-54
2022/07/10 08:54:48;;;;;;;2.42;0.68;;;;;;;20.84;100.00;102002.97;5056680;28;20596;-58
2022/07/10 08:57:15;;;;;;;1.88;1.15;;;;;;;20.76;100.00;102005.97;5057513;28;20048;-59
2022/07/10 08:59:41;;;;;;;1.60;0.88;;;;;;;20.88;100.00;102004.19;5052549;28;20029;-60
2022/07/10 09:02:06;;;;;;;1.58;0.77;;;;;;;21.21;100.00;102002.16;5054245;28;20357;-56
2022/07/10 09:04:31;;;;;;;1.80;0.75;;;;;;;21.10;100.00;101999.16;5048277;28;20074;-56
2022/07/10 09:06:57;;;;;;;4.32;1.73;;;;;;;21.26;100.00;101997.75;5056568;28;20020;-62
2022/07/10 09:09:23;;;;;;;3.70;0.90;;;;;;;21.30;100.00;101993.56;5057522;28;20119;-54
2022/07/10 09:11:55;;;;;;;4.25;1.58;;;;;;;21.52;100.00;101991.22;5054246;28;20410;-57
2022/07/10 09:14:23;;;;;;;3.63;1.48;;;;;;;21.81;100.00;101983.34;5054502;28;20032;-46
2022/07/10 09:16:50;;;;;;;0.98;0.35;;;;;;;22.09;100.00;101981.91;5053288;28;20103;-52
2022/07/10 09:19:21;;;;;;;0.70;0.55;;;;;;;22.05;100.00;101978.06;5048605;28;20075;-59
2022/07/10 09:21:48;;;;;;;1.25;0.52;;;;;;;22.10;100.00;101972.78;5048453;28;20147;-56
2022/07/10 09:24:16;;;;;;;1.25;0.45;;;;;;;22.15;100.00;101970.16;5048070;28;20442;-59
2022/07/10 09:26:42;;;;;;;1.15;0.60;;;;;;;22.03;100.00;101977.44;5052673;28;20098;-63
2022/07/10 09:29:12;;;;;;;0.57;0.43;;;;;;;22.00;100.00;101971.44;5055675;28;20037;-60
2022/07/10 09:31:53;;;;;;;1.05;0.50;;;;;;;22.28;100.00;101958.38;5061971;28;20036;-61
2022/07/10 09:34:42;;;;;;;1.00;0.20;;;;;;;22.44;100.00;101954.97;5059265;28;20035;-58
2022/07/10 09:37:28;;;;;;;5.15;0.40;;;;;;;22.51;100.00;101955.69;5050602;28;20055;-57
2022/07/10 09:40:04;;;;;;;1.27;0.50;;;;;;;22.35;100.00;101951.78;5058627;28;20036;-54
2022/07/10 09:42:36;;;;;;;0.52;0.50;;;;;;;22.17;100.00;101943.75;5053336;28;20059;-58
2022/07/10 09:45:15;;;;;;;1.08;0.57;;;;;;;22.29;100.00;101952.75;5049517;28;20377;-49
2022/07/10 09:48:04;;;;;;;7.18;0.80;;;;;;;22.19;100.00;101938.97;5053221;28;20051;-59
2022/07/10 09:50:34;;;;;;;0.68;0.20;;;;;;;22.50;100.00;101939.72;5058624;28;20107;-54
2022/07/10 09:53:01;;;;;;;0.85;0.30;;;;;;;22.99;100.00;101941.09;5056849;28;20059;-60
2022/07/10 09:55:29;;;;;;;0.55;0.20;;;;;;;23.30;100.00;101937.09;5047625;28;20035;-60
2022/07/10 09:57:57;;;;;;;0.75;0.43;;;;;;;23.64;100.00;101930.97;5054882;28;20024;-57
2022/07/10 10:00:25;;;;;;;0.80;0.22;;;;;;;23.82;100.00;101925.34;5058036;28;20047;-61
2022/07/10 10:02:55;;;;;;;0.63;0.30;;;;;;;23.39;100.00;101928.59;5052963;28;20024;-47
2022/07/10 10:05:27;;;;;;;4.03;0.30;;;;;;;22.97;100.00;101932.38;5060243;28;20036;-51
2022/07/10 10:07:52;;;;;;;;;;;;;;;23.03;100.00;101925.22;5049365;28;20082;-56
2022/07/10 10:10:18;;;;;;;2.63;0.80;;;;;;;23.36;100.00;101926.38;5054058;28;19998;-50
2022/07/10 10:12:52;;;;;;;0.30;0.20;;;;;;;23.23;100.00;101919.38;5060456;28;20033;-57
2022/07/10 10:15:18;;;;;;;2.53;0.38;;;;;;;23.34;100.00;101926.66;5049999;28;20071;-56
2022/07/10 10:17:45;;;;;;;1.08;0.50;;;;;;;23.39;100.00;101929.44;5049966;28;20033;-65
2022/07/10 10:23:00;;;;;;;0.35;0.25;;;;;;;23.54;100.00;101911.84;5058157;28;20150;-56
2022/07/10 10:25:28;;;;;;;1.38;0.25;;;;;;;23.68;100.00;101911.28;5058396;28;20541;-59
2022/07/10 10:27:54;;;;;;;2.08;0.63;;;;;;;24.22;100.00;101904.63;5054976;28;20107;-49
2022/07/10 10:30:19;;;;;;;2.95;0.85;;;;;;;24.72;100.00;101906.41;5055489;28;20430;-57
2022/07/10 10:32:45;;;;;;;1.35;0.30;;;;;;;24.91;100.00;101912.34;5048244;28;20025;-54
2022/07/10 10:35:10;;;;;;;0.90;0.32;;;;;;;25.10;100.00;101910.97;5056946;28;20039;-53
2022/07/10 10:37:36;;;;;;;1.40;0.25;;;;;;;25.27;100.00;101913.59;5052863;28;20119;-64
2022/07/10 10:40:03;;;;;;;1.05;0.32;;;;;;;25.14;100.00;101901.22;5057138;28;20086;-61
2022/07/10 10:42:41;;;;;;;1.88;0.20;;;;;;;25.22;100.00;101898.13;5056861;28;20090;-54
2022/07/10 10:45:32;;;;;;;0.22;0.22;;;;;;;25.52;100.00;101898.66;5059246;28;20428;-53
2022/07/10 10:48:15;;;;;;;1.63;0.40;;;;;;;25.64;100.00;101902.88;5050572;28;20028;-49
2022/07/10 10:50:41;;;;;;;2.45;0.75;;;;;;;25.52;100.00;101898.66;5057649;28;20037;-52
2022/07/10 10:53:26;;;;;;;0.50;0.20;;;;;;;25.14;100.00;101894.97;5057913;28;20111;-61
2022/07/10 10:56:15;;;;;;;1.52;0.30;;;;;;;24.75;100.00;101895.06;5053814;28;20029;-57
2022/07/10 10:58:44;;;;;;;0.47;0.47;;;;;;;24.60;100.00;101890.25;5051059;28;20045;-58
2022/07/10 11:01:28;;;;;;;2.72;0.28;;;;;;;25.28;100.00;101888.13;5057487;28;20115;-51
2022/07/10 11:04:09;;;;;;;2.05;0.20;;;;;;;25.59;100.00;101883.00;5057030;28;20124;-61
2022/07/10 11:06:51;;;;;;;4.00;0.40;;;;;;;25.64;100.00;101877.59;5059956;28;20039;-56
2022/07/10 11:09:28;;;;;;;0.52;0.43;;;;;;;25.94;100.00;101881.66;5047962;28;20048;-53
2022/07/10 11:12:06;;;;;;;1.00;0.30;;;;;;;26.01;94.88;101887.69;5054828;28;20024;-56
2022/07/10 11:14:36;;;;;;;4.20;0.25;;;;;;;25.65;99.85;101879.22;5050639;28;20037;-63
2022/07/10 11:17:02;;;;;;;1.20;0.50;;;;;;;25.66;98.09;101889.00;5057755;28;20068;-53
2022/07/10 11:19:29;;;;;;;0.77;0.30;;;;;;;25.44;96.93;101879.03;5047160;28;20501;-55
2022/07/10 11:22:10;;;;;;;4.82;1.55;;;;;;;25.72;98.26;101876.31;5052998;28;20051;-47
2022/07/10 11:24:41;;;;;;;0.47;0.20;;;;;;;26.18;97.94;101869.34;5041907;28;20032;-55
2022/07/10 11:27:15;;;;;;;;;;;;;;;26.51;92.86;101873.63;5048297;28;20136;-59
2022/07/10 11:29:40;;;;;;;0.88;0.30;;;;;;;26.61;91.92;101870.13;5061719;28;20011;-56
2022/07/10 11:32:07;;;;;;;5.47;0.40;;;;;;;26.43;85.35;101865.13;5059061;28;20033;-57